Time;durP1;ratioP1;P1;durP2;ratioP2;P2;SDS_P1;SDS_P2;PMS_P1;PMS_P2;Temp;Humidity;BMP_temperature;BMP_pressure;BME280_temperature;BME280_humidity;BME280_pressure;Samples;Min_cycle;Max_cycle;Signal;HPM_P1;HPM_P2
2022/05/20 00:02:12;;;;;;;9.85;8.30;;;19.50;58.00;;;;;;5024350;28;20096;-47
2022/05/20 00:04:39;;;;;;;8.90;7.97;;;19.40;58.30;;;;;;5013144;28;20135;-47
2022/05/20 00:07:09;;;;;;;9.77;8.30;;;19.40;58.00;;;;;;5030353;28;20045;-48
2022/05/20 00:09:37;;;;;;;9.25;7.65;;;19.40;58.00;;;;;;5016278;28;20042;-49
2022/05/20 00:12:05;;;;;;;10.63;8.35;;;19.30;58.00;;;;;;5017032;28;20045;-49
2022/05/20 00:14:35;;;;;;;9.18;8.27;;;19.30;58.10;;;;;;5013566;28;20081;-46
2022/05/20 00:17:05;;;;;;;8.10;7.23;;;19.20;58.00;;;;;;4996314;28;20044;-50
2022/05/20 00:19:32;;;;;;;8.25;7.47;;;19.20;57.80;;;;;;5013699;28;20044;-51
2022/05/20 00:22:05;;;;;;;10.13;7.78;;;19.20;57.90;;;;;;5028215;28;20045;-47
2022/05/20 00:25:45;;;;;;;;;;;19.10;57.90;;;;;;4995959;28;20251;-47
2022/05/20 00:27:21;;;;;;;8.15;7.35;;;19.10;57.50;;;;;;5019954;28;19921;-48
2022/05/20 00:29:47;;;;;;;10.02;8.82;;;19.10;57.60;;;;;;5020511;28;20041;-47
2022/05/20 00:32:16;;;;;;;15.77;11.43;;;19.10;58.00;;;;;;5021437;28;20076;-45
2022/05/20 00:34:43;;;;;;;13.70;10.65;;;19.00;59.10;;;;;;5026437;28;20037;-48
2022/05/20 00:37:12;;;;;;;11.40;10.20;;;18.90;59.30;;;;;;5029388;28;20033;-46
2022/05/20 00:39:40;;;;;;;11.38;9.80;;;18.90;59.20;;;;;;5028255;28;20136;-47
2022/05/20 00:42:15;;;;;;;10.75;9.57;;;18.90;59.00;;;;;;5029407;28;20682;-47
2022/05/20 00:44:42;;;;;;;10.18;9.15;;;18.90;59.00;;;;;;5007583;28;20541;-49
2022/05/20 00:47:11;;;;;;;10.43;9.13;;;18.90;58.80;;;;;;5008423;28;20073;-48
2022/05/20 00:49:41;;;;;;;11.80;10.15;;;18.90;58.80;;;;;;4994397;28;20519;-48
2022/05/20 00:52:14;;;;;;;11.27;9.77;;;18.80;58.70;;;;;;5025170;28;20056;-48
2022/05/20 00:54:46;;;;;;;10.98;8.77;;;18.80;58.90;;;;;;5020119;28;20045;-48
2022/05/20 00:57:30;;;;;;;12.10;9.90;;;18.80;58.70;;;;;;5010297;28;20073;-48
2022/05/20 01:00:08;;;;;;;11.90;9.82;;;18.80;59.20;;;;;;5019777;28;20592;-49
2022/05/20 01:02:40;;;;;;;12.50;10.30;;;18.70;59.20;;;;;;5028906;28;20108;-46
2022/05/20 01:05:32;;;;;;;12.38;10.98;;;18.70;59.40;;;;;;5016232;28;20042;-46
2022/05/20 01:08:00;;;;;;;12.95;10.55;;;18.80;60.90;;;;;;5004295;28;20048;-50
2022/05/20 01:10:27;;;;;;;11.48;9.88;;;18.80;60.60;;;;;;5011182;28;20534;-48
2022/05/20 01:12:55;;;;;;;11.45;9.73;;;18.90;60.90;;;;;;5007432;28;20069;-50
2022/05/20 01:15:22;;;;;;;10.23;9.15;;;18.80;61.00;;;;;;5005605;28;20083;-47
2022/05/20 01:17:52;;;;;;;11.48;10.13;;;18.80;61.00;;;;;;5009607;28;20099;-49
2022/05/20 01:20:31;;;;;;;11.32;9.05;;;18.90;60.80;;;;;;5008717;28;20629;-48
2022/05/20 01:23:13;;;;;;;10.93;8.98;;;18.90;60.90;;;;;;5004809;28;20046;-47
2022/05/20 01:25:48;;;;;;;10.85;8.70;;;18.90;61.10;;;;;;5008665;28;20101;-47
2022/05/20 01:28:16;;;;;;;10.25;8.57;;;18.90;60.40;;;;;;5017823;28;20042;-47
2022/05/20 01:30:54;;;;;;;9.65;8.65;;;18.90;60.10;;;;;;5032183;28;20045;-48
2022/05/20 01:33:27;;;;;;;11.57;9.38;;;18.90;60.20;;;;;;5026219;28;20070;-50
2022/05/20 01:35:56;;;;;;;10.85;9.73;;;18.90;59.80;;;;;;5012990;28;20104;-44
2022/05/20 01:38:22;;;;;;;11.50;9.95;;;18.90;59.50;;;;;;5023891;28;20501;-47
2022/05/20 01:41:22;;;;;;;10.48;9.38;;;18.80;59.20;;;;;;5021895;28;20046;-48
2022/05/20 01:44:08;;;;;;;13.30;10.27;;;18.80;59.20;;;;;;4980340;28;20066;-45
2022/05/20 01:46:58;;;;;;;13.63;10.05;;;18.70;59.60;;;;;;4994096;28;20457;-50
2022/05/20 01:49:33;;;;;;;14.65;9.57;;;18.70;59.60;;;;;;5011763;28;20104;-46
2022/05/20 01:52:34;;;;;;;11.00;8.88;;;18.70;59.40;;;;;;5011445;28;20060;-47
2022/05/20 01:55:23;;;;;;;10.60;9.50;;;18.50;59.30;;;;;;5011230;28;20089;-46
2022/05/20 01:58:00;;;;;;;13.10;10.52;;;18.50;59.20;;;;;;5012458;28;20104;-47
2022/05/20 02:00:33;;;;;;;11.95;9.80;;;18.40;59.20;;;;;;5011804;28;20038;-48
2022/05/20 02:03:09;;;;;;;13.02;10.20;;;18.40;59.10;;;;;;5016449;28;20416;-46
2022/05/20 02:05:54;;;;;;;12.07;10.52;;;18.30;59.50;;;;;;5018923;28;20038;-48
2022/05/20 02:08:33;;;;;;;11.60;9.77;;;18.30;59.50;;;;;;5017120;28;20061;-47
2022/05/20 02:11:11;;;;;;;11.90;10.70;;;18.20;59.10;;;;;;5019098;28;20103;-45
2022/05/20 02:13:53;;;;;;;11.82;10.63;;;18.10;59.40;;;;;;5011320;28;20084;-47
2022/05/20 02:16:26;;;;;;;12.13;9.77;;;18.10;59.30;;;;;;5011624;28;20046;-46
2022/05/20 02:19:15;;;;;;;12.88;10.95;;;18.00;59.10;;;;;;5021480;28;20556;-48
2022/05/20 02:21:50;;;;;;;11.20;9.68;;;18.00;59.60;;;;;;5035569;28;20037;-45
2022/05/20 02:24:23;;;;;;;12.45;10.35;;;17.90;59.40;;;;;;5039754;28;20053;-47
2022/05/20 02:26:58;;;;;;;13.60;10.90;;;17.90;59.40;;;;;;5050360;28;20516;-46
2022/05/20 02:29:31;;;;;;;14.13;11.02;;;17.90;59.70;;;;;;5029583;23;20038;-43
2022/05/20 02:32:25;;;;;;;11.73;10.30;;;17.90;60.20;;;;;;4982352;28;20078;-43
2022/05/20 02:34:59;;;;;;;12.23;10.10;;;17.90;61.30;;;;;;4950442;29;20047;-44
2022/05/20 02:37:31;;;;;;;10.50;9.40;;;17.90;60.90;;;;;;4954170;28;20518;-46
2022/05/20 02:39:59;;;;;;;15.48;10.25;;;17.90;61.40;;;;;;4991288;28;20045;-45
2022/05/20 02:42:27;;;;;;;12.98;9.93;;;17.90;61.60;;;;;;4985019;28;20505;-47
2022/05/20 02:45:00;;;;;;;12.23;9.55;;;17.90;61.80;;;;;;5010640;28;20050;-43
2022/05/20 02:47:33;;;;;;;16.45;9.88;;;18.00;61.90;;;;;;5006976;28;20066;-49
2022/05/20 02:50:09;;;;;;;9.95;8.88;;;18.00;62.00;;;;;;5004093;28;20061;-45
2022/05/20 02:52:42;;;;;;;10.68;9.48;;;18.00;62.00;;;;;;4998930;28;20516;-44
2022/05/20 02:55:09;;;;;;;11.27;10.07;;;18.10;61.60;;;;;;4990735;28;20622;-49
2022/05/20 02:57:36;;;;;;;11.43;8.55;;;18.10;61.50;;;;;;4993749;28;20034;-44
2022/05/20 03:05:38;;;;;;;11.45;9.30;;;18.10;60.90;;;;;;5006582;28;20096;-43
2022/05/20 03:08:08;;;;;;;10.90;9.85;;;18.10;60.70;;;;;;4993444;28;20541;-42
2022/05/20 03:10:41;;;;;;;15.82;10.25;;;18.10;60.80;;;;;;4997618;28;20045;-44
2022/05/20 03:13:10;;;;;;;11.82;9.60;;;18.00;60.90;;;;;;5011508;28;20053;-46
2022/05/20 03:15:45;;;;;;;10.45;9.40;;;18.00;60.70;;;;;;4988977;28;20089;-43
2022/05/20 03:18:13;;;;;;;11.32;10.05;;;18.00;60.70;;;;;;4990572;28;20050;-45
2022/05/20 03:20:42;;;;;;;10.52;9.48;;;17.90;60.80;;;;;;5002597;28;20412;-43
2022/05/20 03:23:10;;;;;;;11.00;9.77;;;17.90;60.80;;;;;;5010913;28;20053;-43
2022/05/20 03:25:38;;;;;;;11.07;8.98;;;17.90;61.10;;;;;;5008666;28;20052;-44
2022/05/20 03:28:10;;;;;;;12.27;9.40;;;17.90;61.30;;;;;;4995196;28;20051;-45
2022/05/20 03:30:39;;;;;;;11.13;9.98;;;17.90;61.50;;;;;;4991832;28;20049;-44
2022/05/20 03:33:11;;;;;;;11.40;10.10;;;17.90;61.80;;;;;;4991045;28;20136;-42
2022/05/20 03:35:38;;;;;;;12.20;10.05;;;17.90;62.00;;;;;;4990984;28;20069;-46
2022/05/20 03:38:04;;;;;;;13.57;9.82;;;17.90;62.40;;;;;;5002054;28;20038;-45
2022/05/20 03:40:31;;;;;;;14.77;10.25;;;18.00;62.70;;;;;;5002397;28;20070;-44
2022/05/20 03:43:15;;;;;;;15.18;10.50;;;18.00;63.10;;;;;;5009851;28;20097;-43
2022/05/20 03:45:42;;;;;;;13.55;11.15;;;18.10;64.20;;;;;;4999698;28;20052;-42
2022/05/20 03:48:13;;;;;;;14.85;11.52;;;18.10;63.70;;;;;;5001040;28;20409;-45
2022/05/20 03:50:51;;;;;;;15.57;12.80;;;18.20;64.00;;;;;;5010548;28;20046;-42
2022/05/20 03:53:20;;;;;;;13.38;11.82;;;18.20;64.20;;;;;;4988586;28;20482;-43
2022/05/20 03:55:46;;;;;;;15.40;12.70;;;18.30;64.30;;;;;;4991625;28;20066;-45
2022/05/20 03:58:15;;;;;;;14.13;12.32;;;18.30;64.50;;;;;;4999831;28;20038;-46
2022/05/20 04:03:30;;;;;;;13.05;11.65;;;18.50;64.80;;;;;;5006744;28;20062;-43
2022/05/20 04:05:57;;;;;;;14.75;12.05;;;18.50;64.80;;;;;;4990922;28;20089;-45
2022/05/20 04:08:27;;;;;;;16.35;12.40;;;18.60;64.80;;;;;;5005854;28;20057;-45
2022/05/20 04:10:56;;;;;;;11.95;10.73;;;18.60;64.90;;;;;;4995971;28;20074;-44
2022/05/20 04:13:30;;;;;;;14.65;12.43;;;18.70;65.10;;;;;;4994866;28;20101;-42
2022/05/20 04:16:05;;;;;;;16.65;13.38;;;18.70;64.80;;;;;;4990463;28;20101;-43
2022/05/20 04:18:37;;;;;;;17.60;14.45;;;18.80;64.90;;;;;;4979079;28;20129;-45
2022/05/20 04:21:05;;;;;;;16.70;13.73;;;18.90;65.00;;;;;;4994795;28;20507;-48
2022/05/20 04:23:34;;;;;;;19.98;15.30;;;18.90;65.80;;;;;;5004819;28;20476;-43
2022/05/20 04:26:06;;;;;;;21.20;17.75;;;18.90;65.10;;;;;;5005039;28;20045;-44
2022/05/20 04:28:34;;;;;;;23.60;18.30;;;19.00;65.20;;;;;;5001742;28;20052;-47
2022/05/20 04:31:04;;;;;;;23.30;19.00;;;19.00;65.10;;;;;;4996441;28;20125;-45
2022/05/20 04:33:31;;;;;;;20.60;17.10;;;19.10;65.20;;;;;;4983220;28;20057;-42
2022/05/20 04:35:58;;;;;;;21.23;16.88;;;19.10;65.20;;;;;;4983416;28;20144;-43
2022/05/20 04:38:25;;;;;;;22.33;18.10;;;19.20;65.20;;;;;;4996502;28;20065;-45
2022/05/20 04:49:12;;;;;;;21.05;16.75;;;19.40;65.10;;;;;;4979696;28;20053;-43
2022/05/20 04:51:40;;;;;;;21.48;17.20;;;19.40;65.10;;;;;;4981332;28;20066;-43
2022/05/20 04:56:54;;;;;;;25.67;17.92;;;19.50;65.20;;;;;;4978227;28;20043;-44
2022/05/20 04:59:21;;;;;;;24.23;18.63;;;19.60;65.10;;;;;;4975061;28;20077;-46
2022/05/20 05:01:48;;;;;;;23.73;18.58;;;19.60;65.10;;;;;;4984054;28;20046;-45
2022/05/20 05:04:17;;;;;;;21.90;17.90;;;19.70;65.20;;;;;;4993397;28;20050;-44
2022/05/20 05:06:44;;;;;;;21.58;18.52;;;19.70;65.10;;;;;;4992142;28;20088;-45
2022/05/20 05:09:11;;;;;;;20.92;17.98;;;19.70;65.00;;;;;;4992430;28;20124;-44
2022/05/20 05:11:39;;;;;;;23.17;18.20;;;19.70;65.00;;;;;;4998854;28;20050;-42
2022/05/20 05:14:13;;;;;;;23.48;18.60;;;19.80;65.10;;;;;;5002394;28;20060;-45
2022/05/20 05:16:43;;;;;;;25.48;18.92;;;19.80;65.00;;;;;;4992763;28;20073;-45
2022/05/20 05:19:11;;;;;;;21.88;18.17;;;19.80;64.60;;;;;;4989473;28;20066;-43
2022/05/20 05:21:38;;;;;;;25.48;19.05;;;19.80;64.40;;;;;;4987290;28;20081;-44
2022/05/20 05:24:05;;;;;;;24.33;19.30;;;19.90;64.50;;;;;;4981221;28;20074;-44
2022/05/20 05:26:34;;;;;;;21.33;18.17;;;19.80;64.40;;;;;;4988117;28;20045;-44
2022/05/20 05:29:03;;;;;;;23.20;18.15;;;19.80;64.50;;;;;;4985051;28;20081;-47
2022/05/20 05:31:30;;;;;;;25.77;18.17;;;19.80;64.50;;;;;;4985885;28;20073;-48
2022/05/20 05:33:57;;;;;;;24.08;19.05;;;19.80;64.60;;;;;;4999110;28;20153;-45
2022/05/20 05:36:25;;;;;;;23.42;18.63;;;19.80;64.60;;;;;;4977298;28;20098;-44
2022/05/20 05:38:52;;;;;;;23.65;17.73;;;19.80;64.40;;;;;;4976977;28;20050;-47
2022/05/20 05:41:20;;;;;;;23.92;17.73;;;19.80;64.40;;;;;;4995566;28;20529;-42
2022/05/20 05:43:47;;;;;;;23.33;17.65;;;19.80;64.20;;;;;;4987632;28;20110;-45
2022/05/20 05:46:14;;;;;;;19.73;16.02;;;19.80;64.30;;;;;;4991155;28;20073;-43
2022/05/20 05:48:41;;;;;;;19.45;15.52;;;19.80;64.10;;;;;;5000447;28;20051;-46
2022/05/20 05:51:08;;;;;;;19.63;15.38;;;19.80;64.00;;;;;;5000501;28;20041;-45
2022/05/20 05:53:34;;;;;;;19.20;15.65;;;19.80;63.70;;;;;;4980314;28;20081;-43
2022/05/20 05:56:04;;;;;;;17.88;13.88;;;19.80;63.90;;;;;;4985935;28;20137;-43
2022/05/20 05:58:32;;;;;;;16.08;13.38;;;19.80;63.80;;;;;;4989557;28;20042;-44
2022/05/20 06:00:59;;;;;;;20.20;14.10;;;19.80;63.60;;;;;;4974569;28;20560;-43
2022/05/20 06:03:25;;;;;;;18.30;13.43;;;19.90;63.30;;;;;;4980675;28;20110;-44
2022/05/20 06:05:52;;;;;;;18.90;12.40;;;19.90;63.30;;;;;;4979961;28;20561;-45
2022/05/20 06:08:19;;;;;;;16.55;12.27;;;19.90;63.00;;;;;;4986728;28;20034;-46
2022/05/20 06:10:47;;;;;;;15.98;12.60;;;19.90;63.00;;;;;;4978329;28;20157;-44
2022/05/20 06:13:24;;;;;;;16.05;11.90;;;19.90;63.00;;;;;;4980798;28;20809;-44
2022/05/20 06:15:55;;;;;;;15.23;11.68;;;20.00;62.70;;;;;;4987313;28;20061;-46
2022/05/20 06:18:23;;;;;;;15.63;12.02;;;20.00;62.60;;;;;;4991970;28;20061;-43
2022/05/20 06:20:50;;;;;;;11.20;10.00;;;20.10;62.30;;;;;;4986022;28;20038;-45
2022/05/20 06:23:18;;;;;;;14.23;11.30;;;20.10;62.40;;;;;;4978087;28;20510;-45
2022/05/20 06:25:44;;;;;;;13.43;10.10;;;20.20;62.30;;;;;;4979108;28;20050;-44
2022/05/20 06:28:31;;;;;;;13.90;11.32;;;20.20;61.90;;;;;;4998119;28;20038;-46
2022/05/20 06:31:04;;;;;;;12.43;10.55;;;20.30;61.70;;;;;;4981174;28;20502;-44
2022/05/20 06:33:31;;;;;;;12.55;9.90;;;20.40;61.80;;;;;;4984894;28;20057;-45
2022/05/20 06:41:28;;;;;;;12.48;9.88;;;20.70;60.80;;;;;;4990731;28;20042;-44
2022/05/20 06:43:55;;;;;;;13.77;10.68;;;20.80;60.40;;;;;;4991386;28;20043;-46
2022/05/20 06:46:23;;;;;;;13.88;10.93;;;20.90;60.30;;;;;;4998737;28;20038;-44
2022/05/20 06:48:54;;;;;;;14.07;11.63;;;20.90;60.20;;;;;;5009985;28;20112;-45
2022/05/20 06:51:32;;;;;;;13.73;11.82;;;21.00;60.00;;;;;;5007517;28;20046;-46
2022/05/20 06:54:00;;;;;;;13.98;10.77;;;21.00;59.80;;;;;;4990153;28;20085;-47
2022/05/20 06:56:29;;;;;;;26.73;12.48;;;21.10;59.80;;;;;;5000138;28;20042;-48
2022/05/20 06:58:57;;;;;;;13.35;10.82;;;21.10;59.60;;;;;;4984627;28;20043;-45
2022/05/20 07:01:23;;;;;;;14.27;11.23;;;21.00;59.50;;;;;;4980967;28;20039;-48
2022/05/20 07:03:51;;;;;;;17.17;11.23;;;21.00;59.40;;;;;;5001585;28;20057;-46
2022/05/20 07:06:17;;;;;;;15.35;11.15;;;21.10;59.10;;;;;;4999967;28;20104;-47
2022/05/20 07:08:49;;;;;;;17.75;11.95;;;21.10;59.30;;;;;;4999973;28;20118;-48
2022/05/20 07:11:21;;;;;;;15.18;11.85;;;21.10;59.50;;;;;;4996622;28;20554;-47
2022/05/20 07:13:52;;;;;;;13.70;10.75;;;21.10;59.10;;;;;;4993539;28;20046;-48
2022/05/20 07:16:19;;;;;;;14.32;10.85;;;21.20;59.00;;;;;;4979764;28;20066;-45
2022/05/20 07:18:46;;;;;;;13.68;11.63;;;21.20;58.90;;;;;;4981606;28;20121;-44
2022/05/20 07:21:13;;;;;;;14.75;10.57;;;21.20;58.60;;;;;;4980838;28;20047;-44
2022/05/20 07:23:39;;;;;;;11.90;10.15;;;21.20;58.70;;;;;;4995809;28;20562;-48
2022/05/20 07:26:07;;;;;;;14.98;10.25;;;21.30;58.70;;;;;;4971153;28;20125;-45
2022/05/20 07:28:34;;;;;;;13.30;11.20;;;21.30;58.50;;;;;;4971198;28;20050;-44
2022/05/20 07:31:03;;;;;;;13.60;11.05;;;21.30;58.90;;;;;;4988301;28;20047;-45
2022/05/20 07:33:32;;;;;;;11.88;10.43;;;21.30;59.10;;;;;;4980270;28;20053;-48
2022/05/20 07:35:59;;;;;;;13.63;11.18;;;21.40;58.80;;;;;;4990144;28;20073;-43
2022/05/20 07:38:26;;;;;;;16.90;12.30;;;21.50;58.40;;;;;;4989335;28;20050;-45
2022/05/20 07:40:55;;;;;;;16.05;12.15;;;21.50;58.60;;;;;;4997430;28;20134;-45
2022/05/20 07:43:22;;;;;;;14.10;12.18;;;21.60;58.60;;;;;;4999475;28;20050;-42
2022/05/20 07:45:50;;;;;;;14.55;11.55;;;21.70;59.10;;;;;;4971481;28;20054;-48
2022/05/20 07:48:18;;;;;;;13.02;10.43;;;21.80;59.10;;;;;;4988977;28;20537;-48
2022/05/20 07:50:48;;;;;;;21.67;11.98;;;21.90;59.30;;;;;;5000449;28;20534;-45
2022/05/20 07:53:19;;;;;;;15.95;11.68;;;22.00;58.60;;;;;;5006766;28;20038;-45
2022/05/20 07:56:36;;;;;;;15.30;12.10;;;22.20;58.50;;;;;;4998440;28;20038;-46
2022/05/20 07:59:09;;;;;;;19.23;12.18;;;22.30;58.30;;;;;;4977823;28;20121;-44
2022/05/20 08:01:39;;;;;;;16.67;12.57;;;22.50;58.10;;;;;;4989676;28;20038;-44
2022/05/20 08:07:07;;;;;;;20.42;13.02;;;22.70;57.60;;;;;;4988829;28;20065;-43
2022/05/20 08:09:33;;;;;;;14.93;11.63;;;22.80;57.50;;;;;;5006149;28;20050;-51
2022/05/20 08:12:00;;;;;;;17.17;13.82;;;22.90;57.90;;;;;;4994275;28;20038;-44
2022/05/20 08:14:28;;;;;;;17.65;14.63;;;23.10;58.30;;;;;;4986934;28;20131;-45
2022/05/20 08:16:59;;;;;;;16.27;13.02;;;23.20;57.30;;;;;;4990799;28;20038;-47
2022/05/20 08:19:27;;;;;;;18.00;13.80;;;23.30;57.10;;;;;;4994799;28;20395;-43
2022/05/20 08:21:54;;;;;;;19.13;14.07;;;23.50;57.50;;;;;;5004413;28;20692;-45
2022/05/20 08:24:22;;;;;;;20.52;14.93;;;23.60;57.50;;;;;;5009601;28;20053;-45
2022/05/20 08:26:49;;;;;;;21.02;16.15;;;23.70;57.00;;;;;;5000415;28;20121;-45
2022/05/20 08:29:16;;;;;;;21.85;15.30;;;23.80;57.10;;;;;;5006652;23;20034;-48
2022/05/20 08:31:43;;;;;;;21.63;17.38;;;24.00;56.80;;;;;;5028328;28;20486;-47
2022/05/20 08:34:11;;;;;;;19.70;15.60;;;24.10;56.80;;;;;;5028866;28;20029;-45
2022/05/20 08:36:41;;;;;;;26.20;18.40;;;24.30;56.90;;;;;;5029247;28;20548;-44
2022/05/20 08:39:12;;;;;;;26.70;19.92;;;24.40;56.70;;;;;;5028494;28;20552;-45
2022/05/20 08:41:46;;;;;;;27.98;18.80;;;24.50;56.60;;;;;;4989055;28;20093;-46
2022/05/20 08:44:18;;;;;;;26.27;19.90;;;24.60;57.20;;;;;;5002616;28;20045;-46
2022/05/20 08:46:48;;;;;;;46.23;21.33;;;24.70;56.70;;;;;;5022076;28;20041;-46
2022/05/20 08:49:18;;;;;;;22.42;17.98;;;24.90;56.50;;;;;;5026494;28;20315;-46
2022/05/20 08:51:50;;;;;;;28.05;21.10;;;25.00;56.40;;;;;;5020546;28;20045;-51
2022/05/20 08:54:17;;;;;;;;;;;25.00;56.10;;;;;;5012980;28;20041;-49
2022/05/20 08:56:44;;;;;;;31.05;20.13;;;25.20;56.30;;;;;;5013857;28;19921;-47
2022/05/20 08:59:19;;;;;;;24.73;19.10;;;25.30;56.30;;;;;;5020907;28;20052;-46
2022/05/20 09:01:50;;;;;;;25.25;19.85;;;25.30;55.70;;;;;;5029418;28;20045;-49
2022/05/20 09:04:22;;;;;;;30.15;22.23;;;25.50;56.50;;;;;;5017629;28;20077;-49
2022/05/20 09:06:57;;;;;;;28.67;21.67;;;25.50;56.20;;;;;;5018934;28;20053;-48
2022/05/20 09:09:28;;;;;;;23.77;18.95;;;25.60;55.60;;;;;;5015886;28;20564;-46
2022/05/20 09:11:58;;;;;;;27.33;21.25;;;25.60;55.40;;;;;;5015905;28;20498;-45
2022/05/20 09:17:12;;;;;;;32.05;22.38;;;25.70;56.00;;;;;;5013262;28;20061;-45
2022/05/20 09:19:52;;;;;;;25.30;18.58;;;25.60;56.00;;;;;;5011743;28;20042;-50
2022/05/20 09:22:28;;;;;;;24.88;18.83;;;25.60;56.60;;;;;;5029420;28;20969;-46
2022/05/20 09:24:56;;;;;;;25.65;19.92;;;25.60;56.80;;;;;;5027574;28;20484;-50
2022/05/20 09:27:31;;;;;;;30.73;22.45;;;25.60;56.30;;;;;;5028630;28;20092;-49
2022/05/20 09:30:12;;;;;;;27.17;20.85;;;25.60;55.90;;;;;;5015158;28;20060;-50
2022/05/20 09:32:52;;;;;;;29.92;21.30;;;25.60;56.20;;;;;;5013284;28;20579;-50
2022/05/20 09:35:19;;;;;;;27.92;21.20;;;25.60;56.30;;;;;;5011687;28;20406;-50
2022/05/20 09:37:51;;;;;;;28.02;21.48;;;25.60;56.00;;;;;;5022259;28;20030;-45
2022/05/20 09:40:41;;;;;;;27.02;20.55;;;25.60;56.30;;;;;;5020091;28;20037;-48
2022/05/20 09:43:31;;;;;;;28.77;21.05;;;25.60;56.40;;;;;;5026729;28;20092;-51
2022/05/20 09:46:01;;;;;;;25.45;19.92;;;25.60;56.30;;;;;;5019258;28;20041;-46
2022/05/20 09:48:51;;;;;;;28.08;22.15;;;25.70;56.30;;;;;;5011588;28;20536;-49
2022/05/20 09:51:37;;;;;;;29.15;21.92;;;25.80;56.70;;;;;;5015924;28;20049;-46
2022/05/20 09:54:41;;;;;;;28.30;21.65;;;25.90;56.50;;;;;;5015567;28;20060;-49
2022/05/20 09:57:15;;;;;;;26.33;20.38;;;26.00;56.50;;;;;;4931962;29;20118;-47
2022/05/20 10:00:08;;;;;;;27.30;20.27;;;26.10;56.30;;;;;;5005970;28;20092;-46
2022/05/20 10:02:48;;;;;;;28.80;20.55;;;26.20;56.90;;;;;;5013352;28;20042;-46
2022/05/20 10:05:31;;;;;;;28.38;18.88;;;26.30;56.40;;;;;;5011299;28;20500;-46
2022/05/20 10:08:00;;;;;;;;;;;26.40;56.10;;;;;;5015567;28;20038;-50
2022/05/20 10:10:49;;;;;;;23.50;17.75;;;26.50;56.20;;;;;;5012372;28;19949;-46
2022/05/20 10:13:39;;;;;;;21.13;16.95;;;26.50;55.50;;;;;;5021625;28;20050;-46
2022/05/20 10:16:46;;;;;;;23.73;17.63;;;26.50;56.10;;;;;;4959573;28;20064;-47
2022/05/20 10:19:21;;;;;;;21.23;16.65;;;26.60;55.60;;;;;;5010271;28;20054;-47
2022/05/20 10:21:48;;;;;;;27.50;20.20;;;26.60;56.00;;;;;;5013663;28;20038;-48
2022/05/20 10:24:38;;;;;;;25.92;19.75;;;26.60;56.00;;;;;;5005502;28;20114;-48
2022/05/20 10:27:26;;;;;;;23.42;19.25;;;26.60;55.80;;;;;;5001646;28;20082;-45
2022/05/20 10:33:03;;;;;;;24.05;20.70;;;26.60;55.90;;;;;;5007473;28;20029;-48
2022/05/20 10:35:59;;;;;;;26.13;21.83;;;26.70;56.60;;;;;;5000296;28;20038;-48
2022/05/20 10:38:43;;;;;;;22.00;18.80;;;26.70;55.80;;;;;;4970891;28;20108;-49
2022/05/20 10:41:22;;;;;;;22.80;19.60;;;26.80;55.80;;;;;;5006444;28;20038;-47
2022/05/20 10:49:58;;;;;;;22.20;19.73;;;27.00;56.00;;;;;;5004566;28;20038;-49
2022/05/20 10:52:31;;;;;;;25.48;21.60;;;27.10;56.20;;;;;;5001520;28;20045;-49
2022/05/20 10:55:19;;;;;;;25.08;22.38;;;27.20;56.20;;;;;;5001037;28;20034;-49
2022/05/20 10:57:54;;;;;;;22.13;19.88;;;27.30;56.40;;;;;;5014009;28;20487;-47
2022/05/20 11:00:25;;;;;;;26.15;23.38;;;27.50;56.10;;;;;;5020401;28;20092;-49
2022/05/20 11:03:37;;;;;;;24.95;22.25;;;27.60;55.70;;;;;;5030186;28;20095;-51
2022/05/20 11:06:30;;;;;;;30.58;24.48;;;27.70;55.50;;;;;;5018635;28;20038;-47
2022/05/20 11:09:21;;;;;;;26.80;24.02;;;27.80;55.50;;;;;;5004420;28;20046;-47
2022/05/20 11:12:03;;;;;;;24.63;21.98;;;28.00;55.70;;;;;;5000979;28;20053;-47
2022/05/20 11:14:55;;;;;;;26.02;22.52;;;28.10;54.90;;;;;;5002153;28;20046;-49
2022/05/20 11:17:46;;;;;;;25.52;22.90;;;28.20;54.80;;;;;;4998075;28;20068;-46
2022/05/20 11:20:31;;;;;;;23.95;20.95;;;28.30;55.30;;;;;;5010078;28;20527;-46
2022/05/20 11:23:01;;;;;;;25.10;20.92;;;28.40;54.50;;;;;;5021599;28;20107;-51
2022/05/20 11:25:50;;;;;;;25.23;22.42;;;28.50;54.60;;;;;;5016746;28;20041;-48
2022/05/20 11:28:49;;;;;;;25.38;22.83;;;28.60;54.10;;;;;;5003340;28;20081;-50
2022/05/20 11:31:35;;;;;;;26.83;23.95;;;28.70;54.20;;;;;;4957175;28;20477;-49
2022/05/20 11:34:12;;;;;;;22.60;20.17;;;28.90;53.80;;;;;;5015128;28;20037;-46
2022/05/20 11:36:56;;;;;;;24.27;20.98;;;29.00;54.20;;;;;;5009694;28;20038;-48
2022/05/20 11:39:40;;;;;;;23.08;19.70;;;29.10;53.30;;;;;;4998784;28;20101;-46
2022/05/20 11:42:24;;;;;;;23.95;21.27;;;29.30;53.10;;;;;;5006528;28;20042;-48
2022/05/20 11:45:20;;;;;;;22.63;20.35;;;29.40;52.60;;;;;;5007870;28;20041;-46
2022/05/20 11:48:14;;;;;;;21.38;19.08;;;29.50;52.30;;;;;;5010979;28;20053;-50
2022/05/20 11:51:18;;;;;;;20.90;17.17;;;29.50;52.20;;;;;;5009580;28;20042;-50
2022/05/20 11:53:59;;;;;;;20.15;18.15;;;29.60;52.10;;;;;;5012083;28;20037;-47
2022/05/20 11:56:39;;;;;;;19.45;17.35;;;29.50;52.00;;;;;;5029138;28;20072;-47
2022/05/20 11:59:16;;;;;;;21.27;17.23;;;29.40;51.60;;;;;;5002861;28;20042;-50
2022/05/20 12:01:49;;;;;;;18.13;15.98;;;29.30;51.40;;;;;;5000055;28;20862;-48
2022/05/20 12:04:18;;;;;;;18.02;16.27;;;29.20;51.30;;;;;;5011323;28;20083;-48
2022/05/20 12:06:53;;;;;;;20.63;16.58;;;29.10;51.40;;;;;;5009087;28;20538;-48
2022/05/20 12:09:40;;;;;;;17.52;15.40;;;28.90;51.80;;;;;;5007568;28;20047;-47
2022/05/20 12:12:15;;;;;;;18.73;15.85;;;28.80;52.20;;;;;;5000495;28;20109;-48
2022/05/20 12:15:02;;;;;;;18.52;15.57;;;28.50;52.10;;;;;;5005518;28;20445;-51
2022/05/20 12:17:31;;;;;;;20.08;15.57;;;28.40;52.90;;;;;;5030137;28;20494;-48
2022/05/20 12:26:05;;;;;;;19.75;15.85;;;27.90;56.00;;;;;;4986730;28;20054;-53
2022/05/20 12:28:36;;;;;;;20.02;16.95;;;27.70;57.60;;;;;;5005316;28;20041;-47
2022/05/20 12:31:25;;;;;;;20.55;16.85;;;27.50;58.20;;;;;;5014501;28;20485;-48
2022/05/20 12:33:52;;;;;;;24.25;19.02;;;27.40;59.40;;;;;;4996555;28;20104;-46
2022/05/20 12:36:22;;;;;;;22.10;18.63;;;27.20;59.30;;;;;;5010930;28;20069;-48
2022/05/20 12:38:50;;;;;;;32.90;21.77;;;27.00;59.70;;;;;;5008223;28;20526;-51
2022/05/20 12:41:33;;;;;;;33.92;22.77;;;26.80;60.90;;;;;;5009712;28;20146;-51
2022/05/20 12:44:16;;;;;;;31.10;21.98;;;26.60;62.20;;;;;;5020905;28;20041;-50
2022/05/20 12:47:04;;;;;;;39.10;20.27;;;26.40;63.80;;;;;;5028434;28;20049;-49
2022/05/20 12:49:49;;;;;;;7.85;7.05;;;26.00;62.80;;;;;;5026700;28;20124;-51
2022/05/20 12:52:17;;;;;;;12.70;8.82;;;25.60;63.00;;;;;;5009424;28;20046;-51
2022/05/20 12:54:48;;;;;;;11.63;9.02;;;25.10;63.40;;;;;;4998862;28;20180;-51
2022/05/20 12:57:19;;;;;;;12.20;9.60;;;24.70;65.20;;;;;;5006687;28;20046;-50
2022/05/20 12:59:51;;;;;;;13.43;8.88;;;24.40;67.50;;;;;;5000621;28;20502;-50
2022/05/20 13:02:28;;;;;;;8.55;6.88;;;24.10;68.50;;;;;;5000470;28;20057;-48
2022/05/20 13:04:57;;;;;;;10.80;8.95;;;23.80;69.70;;;;;;4998691;28;20448;-49
2022/05/20 13:07:25;;;;;;;11.48;9.30;;;23.70;70.50;;;;;;4999869;28;20635;-52
2022/05/20 13:09:51;;;;;;;10.63;9.10;;;23.60;72.30;;;;;;5014093;28;20041;-53
2022/05/20 13:12:21;;;;;;;10.65;9.55;;;23.40;73.50;;;;;;4965366;28;20628;-52
2022/05/20 13:14:57;;;;;;;13.05;10.63;;;23.40;75.70;;;;;;5004066;28;20132;-50
2022/05/20 13:17:24;;;;;;;17.90;12.75;;;23.40;78.10;;;;;;4985027;28;20045;-54
2022/05/20 13:19:53;;;;;;;20.83;16.02;;;23.50;79.30;;;;;;5004183;28;20068;-50
2022/05/20 13:22:23;;;;;;;23.70;17.02;;;23.70;82.70;;;;;;4996219;28;20646;-51
2022/05/20 13:25:05;;;;;;;19.95;16.33;;;23.80;85.20;;;;;;5005828;28;20132;-48
2022/05/20 13:27:32;;;;;;;17.35;14.27;;;24.10;88.50;;;;;;4996861;28;20112;-49
2022/05/20 13:30:16;;;;;;;14.07;12.43;;;24.40;85.90;;;;;;5014098;28;20042;-51
2022/05/20 13:32:42;;;;;;;13.30;12.00;;;24.60;88.40;;;;;;4989588;28;20124;-50
2022/05/20 13:35:09;;;;;;;13.07;11.10;;;24.80;85.70;;;;;;5006984;28;20064;-53
2022/05/20 13:37:51;;;;;;;17.90;11.68;;;25.00;84.90;;;;;;5001812;28;20042;-46
2022/05/20 13:40:39;;;;;;;15.23;11.70;;;25.10;84.80;;;;;;5005098;28;20041;-49
2022/05/20 13:43:12;;;;;;;14.98;11.43;;;25.30;86.30;;;;;;4996897;28;20088;-50
2022/05/20 13:51:29;;;;;;;9.65;7.95;;;26.00;87.40;;;;;;4995504;28;20761;-47
2022/05/20 13:53:57;;;;;;;11.18;8.77;;;26.20;84.10;;;;;;5004042;28;20069;-46
2022/05/20 13:56:30;;;;;;;8.05;7.25;;;26.30;80.40;;;;;;4998175;28;20066;-48